Terminal Aerodrome Forecast
Issued by NWS Wilmington, OH

Current Version | Previous Version | Graphics & Text | Print | Product List | Glossary On
Versions: 1 2 3 4 5 6 7 8 9 10 11 12 13 14 15 16 17 18 19 20 21 22 23 24 25 26 27 28 29
000
FTUS41 KILN 231100
TAFCVG
TAF
KCVG 231128Z 2312/2418 09004KT P6SM OVC018
      TEMPO 2313/2314 OVC025
     FM231400 09004KT P6SM BKN025 OVC150
     FM231600 09004KT P6SM SCT025 OVC100
     FM240000 VRB03KT P6SM SCT025 OVC080
     FM240600 29005KT P6SM FEW015 SCT250
     FM241300 25008KT P6SM SCT025 BKN080=

USA.gov is the U.S. government's official web portal to all federal, state and local government web resources and services.